Terminal Aerodrome Forecast
Issued by NWS

Home | Current Version | Previous Version | Text Only | Print | Product List | Glossary On
Versions: 1 2 3 4 5 6 7 8 9 10 11 12 13 14
804
FTUS45 KVEF 241120
TAFHND
TAF
KHND 241120Z 2412/2512 21012G18KT P6SM FEW100 FEW250
     FM241500 22019G26KT P6SM FEW100 SCT250
     FM250600 20014KT P6SM FEW250=

USA.gov is the U.S. government's official web portal to all federal, state and local government web resources and services.